sensor_id;sensor_type;location;lat;lon;timestamp;pressure;altitude;pressure_sealevel;temperature;humidity
77517;BME280;68414;53.946;27.634;2023-04-01T00:00:26;97166.359375;;;6.240000;73.176758
77517;BME280;68414;53.946;27.634;2023-04-01T00:01:26;97166.015625;;;6.260000;72.888672
77517;BME280;68414;53.946;27.634;2023-04-01T00:02:26;97162.109375;;;6.270000;72.675781
77517;BME280;68414;53.946;27.634;2023-04-01T00:03:26;97162.484375;;;6.250000;72.340820
77517;BME280;68414;53.946;27.634;2023-04-01T00:04:26;97159.671875;;;6.220000;72.432617
77517;BME280;68414;53.946;27.634;2023-04-01T00:05:26;97162.734375;;;6.170000;72.658203
77517;BME280;68414;53.946;27.634;2023-04-01T00:06:26;97160.507812;;;5.990000;73.240234
77517;BME280;68414;53.946;27.634;2023-04-01T00:07:26;97166.273438;;;5.940000;73.993164
77517;BME280;68414;53.946;27.634;2023-04-01T00:08:26;97163.593750;;;5.980000;73.858398
77517;BME280;68414;53.946;27.634;2023-04-01T00:09:26;97158.492188;;;5.960000;74.392578
77517;BME280;68414;53.946;27.634;2023-04-01T00:10:26;97157.648438;;;5.920000;74.619141
77517;BME280;68414;53.946;27.634;2023-04-01T00:11:26;97157.703125;;;5.960000;74.807617
77517;BME280;68414;53.946;27.634;2023-04-01T00:12:26;97163.539062;;;5.940000;73.928711
77517;BME280;68414;53.946;27.634;2023-04-01T00:13:26;97161.421875;;;5.840000;74.371094
77517;BME280;68414;53.946;27.634;2023-04-01T00:14:26;97167.656250;;;5.850000;75.057617
77517;BME280;68414;53.946;27.634;2023-04-01T00:15:26;97162.984375;;;5.850000;75.260742
77517;BME280;68414;53.946;27.634;2023-04-01T00:16:26;97164.257812;;;5.910000;75.175781
77517;BME280;68414;53.946;27.634;2023-04-01T00:17:26;97158.742188;;;5.880000;74.108398
77517;BME280;68414;53.946;27.634;2023-04-01T00:18:26;97159.585938;;;5.920000;74.640625
77517;BME280;68414;53.946;27.634;2023-04-01T00:19:26;97162.742188;;;5.940000;74.430664
77517;BME280;68414;53.946;27.634;2023-04-01T00:20:26;97167.117188;;;5.980000;75.433594
77517;BME280;68414;53.946;27.634;2023-04-01T00:21:26;97163.960938;;;5.960000;75.932617
77517;BME280;68414;53.946;27.634;2023-04-01T00:22:26;97162.398438;;;5.950000;75.813477
77517;BME280;68414;53.946;27.634;2023-04-01T00:23:26;97166.695312;;;5.960000;75.954102
77517;BME280;68414;53.946;27.634;2023-04-01T00:24:26;97158.078125;;;5.940000;76.208008
77517;BME280;68414;53.946;27.634;2023-04-01T00:25:26;97160.007812;;;5.940000;76.441406
77517;BME280;68414;53.946;27.634;2023-04-01T00:26:26;97161.898438;;;5.900000;76.189453
77517;BME280;68414;53.946;27.634;2023-04-01T00:27:26;97161.421875;;;5.840000;76.275391
77517;BME280;68414;53.946;27.634;2023-04-01T00:28:26;97162.109375;;;5.810000;76.685547
77517;BME280;68414;53.946;27.634;2023-04-01T00:29:26;97164.046875;;;5.810000;77.166992
77517;BME280;68414;53.946;27.634;2023-04-01T00:30:26;97158.531250;;;5.770000;77.341797
77517;BME280;68414;53.946;27.634;2023-04-01T00:31:26;97155.296875;;;5.720000;77.749023
77517;BME280;68414;53.946;27.634;2023-04-01T00:32:26;97153.734375;;;5.710000;77.342773
77517;BME280;68414;53.946;27.634;2023-04-01T00:33:26;97156.093750;;;5.720000;77.846680
77517;BME280;68414;53.946;27.634;2023-04-01T00:34:26;97155.296875;;;5.720000;77.427734
77517;BME280;68414;53.946;27.634;2023-04-01T00:35:26;97155.671875;;;5.700000;77.362305
77517;BME280;68414;53.946;27.634;2023-04-01T00:36:26;97159.382812;;;5.590000;77.009766
77517;BME280;68414;53.946;27.634;2023-04-01T00:37:26;97150.812500;;;5.600000;77.514648
77517;BME280;68414;53.946;27.634;2023-04-01T00:38:26;97151.609375;;;5.610000;77.343750
77517;BME280;68414;53.946;27.634;2023-04-01T00:39:28;97150.390625;;;5.580000;77.394531
77517;BME280;68414;53.946;27.634;2023-04-01T00:41:26;97147.843750;;;5.690000;77.027344
77517;BME280;68414;53.946;27.634;2023-04-01T00:42:26;97145.109375;;;5.690000;76.696289
77517;BME280;68414;53.946;27.634;2023-04-01T00:43:26;97148.742188;;;5.760000;77.051758
77517;BME280;68414;53.946;27.634;2023-04-01T00:44:27;97146.140625;;;5.830000;76.518555
77517;BME280;68414;53.946;27.634;2023-04-01T00:46:26;97149.500000;;;5.960000;76.038086
77517;BME280;68414;53.946;27.634;2023-04-01T00:47:26;97152.734375;;;6.010000;75.298828
77517;BME280;68414;53.946;27.634;2023-04-01T00:48:27;97151.937500;;;6.010000;74.732422
77517;BME280;68414;53.946;27.634;2023-04-01T00:49:29;97152.734375;;;6.010000;74.743164
77517;BME280;68414;53.946;27.634;2023-04-01T00:50:26;97147.187500;;;5.980000;75.474609
77517;BME280;68414;53.946;27.634;2023-04-01T00:51:27;97147.562500;;;5.960000;76.050781
77517;BME280;68414;53.946;27.634;2023-04-01T00:52:26;97149.078125;;;5.940000;76.227539
77517;BME280;68414;53.946;27.634;2023-04-01T00:53:26;97144.703125;;;5.890000;76.371094
77517;BME280;68414;53.946;27.634;2023-04-01T00:54:26;97142.562500;;;5.790000;76.522461
77517;BME280;68414;53.946;27.634;2023-04-01T00:55:26;97148.742188;;;5.760000;77.019531
77517;BME280;68414;53.946;27.634;2023-04-01T00:56:27;97143.703125;;;5.780000;77.257812
77517;BME280;68414;53.946;27.634;2023-04-01T00:58:26;97142.609375;;;5.830000;77.320312
77517;BME280;68414;53.946;27.634;2023-04-01T00:59:27;97141.046875;;;5.820000;77.435547
77517;BME280;68414;53.946;27.634;2023-04-01T01:00:26;97146.968750;;;5.840000;77.385742
77517;BME280;68414;53.946;27.634;2023-04-01T01:01:26;97144.281250;;;5.870000;77.563477
77517;BME280;68414;53.946;27.634;2023-04-01T01:02:26;97144.656250;;;5.860000;77.399414
77517;BME280;68414;53.946;27.634;2023-04-01T01:03:26;97149.617188;;;5.800000;77.562500
77517;BME280;68414;53.946;27.634;2023-04-01T01:05:29;97147.601562;;;5.770000;77.544922
77517;BME280;68414;53.946;27.634;2023-04-01T01:06:30;97142.140625;;;5.770000;77.833984
77517;BME280;68414;53.946;27.634;2023-04-01T01:10:28;97137.890625;;;6.020000;76.766602
77517;BME280;68414;53.946;27.634;2023-04-01T01:17:29;97138.984375;;;5.750000;77.231445
77517;BME280;68414;53.946;27.634;2023-04-01T01:19:33;97150.281250;;;5.740000;77.228516
77517;BME280;68414;53.946;27.634;2023-04-01T01:27:26;97136.375000;;;6.050000;75.605469
77517;BME280;68414;53.946;27.634;2023-04-01T01:31:29;97139.359375;;;5.960000;77.120117
77517;BME280;68414;53.946;27.634;2023-04-01T01:36:26;97134.437500;;;6.050000;75.403320
77517;BME280;68414;53.946;27.634;2023-04-01T01:37:26;97147.687500;;;6.030000;76.481445
77517;BME280;68414;53.946;27.634;2023-04-01T01:38:27;97135.578125;;;6.040000;76.941406
77517;BME280;68414;53.946;27.634;2023-04-01T01:39:26;97134.437500;;;6.050000;77.372070
77517;BME280;68414;53.946;27.634;2023-04-01T01:40:26;97132.125000;;;6.070000;77.396484
77517;BME280;68414;53.946;27.634;2023-04-01T01:41:26;97128.250000;;;6.080000;77.376953
77517;BME280;68414;53.946;27.634;2023-04-01T01:42:26;97131.398438;;;6.100000;77.476562
77517;BME280;68414;53.946;27.634;2023-04-01T01:44:26;97142.421875;;;6.180000;77.233398
77517;BME280;68414;53.946;27.634;2023-04-01T01:45:26;97136.531250;;;6.160000;76.811523
77517;BME280;68414;53.946;27.634;2023-04-01T01:46:26;97138.968750;;;6.210000;76.787109
77517;BME280;68414;53.946;27.634;2023-04-01T01:47:26;97145.492188;;;6.130000;76.110352
77517;BME280;68414;53.946;27.634;2023-04-01T01:48:26;97141.539062;;;6.100000;77.026367
77517;BME280;68414;53.946;27.634;2023-04-01T01:49:27;97135.656250;;;6.080000;77.386719
77517;BME280;68414;53.946;27.634;2023-04-01T01:50:26;97138.804688;;;6.100000;77.517578
77517;BME280;68414;53.946;27.634;2023-04-01T01:51:26;97143.101562;;;6.110000;77.679688
77517;BME280;68414;53.946;27.634;2023-04-01T01:52:27;97137.710938;;;6.150000;77.418945
77517;BME280;68414;53.946;27.634;2023-04-01T01:53:26;97134.976562;;;6.150000;77.504883
77517;BME280;68414;53.946;27.634;2023-04-01T01:54:26;97139.648438;;;6.140000;77.686523
77517;BME280;68414;53.946;27.634;2023-04-01T01:55:27;97146.000000;;;6.220000;77.572266
77517;BME280;68414;53.946;27.634;2023-04-01T01:56:26;97141.328125;;;6.220000;77.059570
77517;BME280;68414;53.946;27.634;2023-04-01T01:57:28;97141.437500;;;6.290000;76.932617
77517;BME280;68414;53.946;27.634;2023-04-01T01:58:30;97142.281250;;;6.330000;76.040039
77517;BME280;68414;53.946;27.634;2023-04-01T01:59:26;97143.031250;;;6.300000;76.238281
77517;BME280;68414;53.946;27.634;2023-04-01T02:00:26;97146.796875;;;6.220000;76.791992
77517;BME280;68414;53.946;27.634;2023-04-01T02:01:27;97147.171875;;;6.210000;77.097656
77517;BME280;68414;53.946;27.634;2023-04-01T02:02:26;97143.718750;;;6.240000;77.158203
77517;BME280;68414;53.946;27.634;2023-04-01T02:03:27;97142.500000;;;6.210000;76.832031
77517;BME280;68414;53.946;27.634;2023-04-01T02:04:26;97141.703125;;;6.210000;76.968750
77517;BME280;68414;53.946;27.634;2023-04-01T02:05:26;97148.390625;;;6.230000;77.145508
77517;BME280;68414;53.946;27.634;2023-04-01T02:06:26;97142.125000;;;6.230000;77.262695
77517;BME280;68414;53.946;27.634;2023-04-01T02:07:27;97139.687500;;;6.180000;77.373047
77517;BME280;68414;53.946;27.634;2023-04-01T02:08:27;97138.851562;;;6.130000;77.459961
77517;BME280;68414;53.946;27.634;2023-04-01T02:09:26;97140.023438;;;6.130000;77.865234
77517;BME280;68414;53.946;27.634;2023-04-01T02:10:26;97140.367188;;;6.110000;77.455078
77517;BME280;68414;53.946;27.634;2023-04-01T02:12:26;97140.023438;;;6.130000;77.757812
77517;BME280;68414;53.946;27.634;2023-04-01T02:14:31;97144.171875;;;6.290000;76.043945
77517;BME280;68414;53.946;27.634;2023-04-01T02:15:26;97143.031250;;;6.300000;75.252930
77517;BME280;68414;53.946;27.634;2023-04-01T02:16:31;97146.750000;;;6.190000;75.414062
77517;BME280;68414;53.946;27.634;2023-04-01T02:17:26;97149.671875;;;6.060000;75.403320
77517;BME280;68414;53.946;27.634;2023-04-01T02:18:26;97144.781250;;;5.930000;75.166992
77517;BME280;68414;53.946;27.634;2023-04-01T02:19:27;97146.296875;;;5.900000;75.697266
77517;BME280;68414;53.946;27.634;2023-04-01T02:20:26;97144.453125;;;5.980000;75.709961
77517;BME280;68414;53.946;27.634;2023-04-01T02:21:27;97143.781250;;;6.040000;75.881836
77517;BME280;68414;53.946;27.634;2023-04-01T02:22:27;97134.554688;;;6.130000;75.532227
77517;BME280;68414;53.946;27.634;2023-04-01T02:23:26;97133.875000;;;6.190000;75.276367
77517;BME280;68414;53.946;27.634;2023-04-01T02:24:26;97138.250000;;;6.240000;75.081055
77517;BME280;68414;53.946;27.634;2023-04-01T02:25:27;97139.078125;;;6.280000;74.499023
77517;BME280;68414;53.946;27.634;2023-04-01T02:26:26;97134.453125;;;6.320000;74.592773
77517;BME280;68414;53.946;27.634;2023-04-01T02:27:26;97138.437500;;;6.380000;74.398438
77517;BME280;68414;53.946;27.634;2023-04-01T02:28:26;97143.117188;;;6.370000;74.322266
77517;BME280;68414;53.946;27.634;2023-04-01T02:29:26;97138.023438;;;6.360000;74.469727
77517;BME280;68414;53.946;27.634;2023-04-01T02:31:26;97143.078125;;;6.340000;74.027344
77517;BME280;68414;53.946;27.634;2023-04-01T02:32:26;97145.390625;;;6.320000;74.367188
77517;BME280;68414;53.946;27.634;2023-04-01T02:33:26;97152.078125;;;6.340000;74.391602
77517;BME280;68414;53.946;27.634;2023-04-01T02:34:26;97146.906250;;;6.290000;75.176758
77517;BME280;68414;53.946;27.634;2023-04-01T02:35:26;97145.906250;;;6.150000;75.022461
77517;BME280;68414;53.946;27.634;2023-04-01T02:36:26;97154.835938;;;6.110000;75.413086
77517;BME280;68414;53.946;27.634;2023-04-01T02:37:26;97149.859375;;;6.170000;75.583984
77517;BME280;68414;53.946;27.634;2023-04-01T02:38:26;97150.703125;;;6.210000;75.269531
77517;BME280;68414;53.946;27.634;2023-04-01T02:39:26;97153.992188;;;6.070000;76.413086
77517;BME280;68414;53.946;27.634;2023-04-01T02:40:26;97155.210938;;;6.100000;76.608398
77517;BME280;68414;53.946;27.634;2023-04-01T02:41:26;97152.101562;;;6.110000;76.323242
77517;BME280;68414;53.946;27.634;2023-04-01T02:42:26;97159.460938;;;6.070000;76.456055
77517;BME280;68414;53.946;27.634;2023-04-01T02:43:26;97157.828125;;;6.030000;76.576172
77517;BME280;68414;53.946;27.634;2023-04-01T02:44:26;97156.562500;;;5.970000;76.981445
77517;BME280;68414;53.946;27.634;2023-04-01T02:45:26;97153.453125;;;5.980000;77.038086
77517;BME280;68414;53.946;27.634;2023-04-01T02:46:26;97156.132812;;;5.950000;77.363281
77517;BME280;68414;53.946;27.634;2023-04-01T02:47:26;97154.968750;;;5.960000;77.385742
77517;BME280;68414;53.946;27.634;2023-04-01T02:48:26;97151.890625;;;5.970000;76.972656
77517;BME280;68414;53.946;27.634;2023-04-01T02:49:26;97146.171875;;;6.060000;77.008789
77517;BME280;68414;53.946;27.634;2023-04-01T02:50:26;97147.007812;;;6.100000;76.908203
77517;BME280;68414;53.946;27.634;2023-04-01T02:51:26;97141.578125;;;6.130000;76.850586
77517;BME280;68414;53.946;27.634;2023-04-01T02:52:26;97146.750000;;;6.190000;76.784180
77517;BME280;68414;53.946;27.634;2023-04-01T02:53:26;97147.890625;;;6.180000;76.644531
77517;BME280;68414;53.946;27.634;2023-04-01T02:54:26;97151.921875;;;6.240000;76.408203
77517;BME280;68414;53.946;27.634;2023-04-01T02:55:26;97147.593750;;;6.230000;75.967773
77517;BME280;68414;53.946;27.634;2023-04-01T02:56:26;97150.703125;;;6.210000;76.372070
77517;BME280;68414;53.946;27.634;2023-04-01T02:57:26;97147.171875;;;6.210000;76.124023
77517;BME280;68414;53.946;27.634;2023-04-01T02:58:26;97148.429688;;;6.270000;76.306641
77517;BME280;68414;53.946;27.634;2023-04-01T02:59:26;97146.906250;;;6.290000;76.161133
77517;BME280;68414;53.946;27.634;2023-04-01T03:00:26;97144.640625;;;6.350000;75.591797
77517;BME280;68414;53.946;27.634;2023-04-01T03:01:26;97142.015625;;;6.420000;75.293945
77517;BME280;68414;53.946;27.634;2023-04-01T03:02:26;97146.000000;;;6.480000;74.683594
77517;BME280;68414;53.946;27.634;2023-04-01T03:03:26;97146.421875;;;6.500000;74.011719
77517;BME280;68414;53.946;27.634;2023-04-01T03:04:26;97148.429688;;;6.530000;73.877930
77517;BME280;68414;53.946;27.634;2023-04-01T03:05:26;97149.953125;;;6.500000;73.316406
77517;BME280;68414;53.946;27.634;2023-04-01T03:06:26;97147.484375;;;6.420000;73.933594
77517;BME280;68414;53.946;27.634;2023-04-01T03:07:26;97148.656250;;;6.410000;74.511719
77517;BME280;68414;53.946;27.634;2023-04-01T03:08:26;97142.078125;;;6.450000;74.389648
77517;BME280;68414;53.946;27.634;2023-04-01T03:09:26;97139.390625;;;6.490000;74.470703
77517;BME280;68414;53.946;27.634;2023-04-01T03:10:26;97144.546875;;;6.540000;74.339844
77517;BME280;68414;53.946;27.634;2023-04-01T03:11:26;97144.484375;;;6.500000;74.174805
77517;BME280;68414;53.946;27.634;2023-04-01T03:12:26;97139.804688;;;6.510000;73.766602
77517;BME280;68414;53.946;27.634;2023-04-01T03:13:26;97135.968750;;;6.550000;73.881836
77517;BME280;68414;53.946;27.634;2023-04-01T03:14:26;97128.593750;;;6.590000;73.630859
77517;BME280;68414;53.946;27.634;2023-04-01T03:15:26;97129.796875;;;6.620000;73.667969
77517;BME280;68414;53.946;27.634;2023-04-01T03:16:26;97125.851562;;;6.590000;73.331055
77517;BME280;68414;53.946;27.634;2023-04-01T03:17:26;97121.531250;;;6.580000;73.694336
77517;BME280;68414;53.946;27.634;2023-04-01T03:18:26;97122.390625;;;6.620000;73.764648
77517;BME280;68414;53.946;27.634;2023-04-01T03:19:26;97129.171875;;;6.460000;73.159180
77517;BME280;68414;53.946;27.634;2023-04-01T03:20:26;97136.851562;;;6.370000;73.829102
77517;BME280;68414;53.946;27.634;2023-04-01T03:21:26;97143.875000;;;6.340000;73.652344
77517;BME280;68414;53.946;27.634;2023-04-01T03:22:26;97139.804688;;;6.250000;73.229492
77517;BME280;68414;53.946;27.634;2023-04-01T03:23:26;97149.671875;;;6.060000;73.359375
77517;BME280;68414;53.946;27.634;2023-04-01T03:24:26;97141.375000;;;5.990000;74.290039
77517;BME280;68414;53.946;27.634;2023-04-01T03:25:26;97140.953125;;;5.970000;74.404297
77517;BME280;68414;53.946;27.634;2023-04-01T03:26:26;97131.531250;;;5.950000;74.880859
77517;BME280;68414;53.946;27.634;2023-04-01T03:27:26;97135.531250;;;6.010000;75.127930
77517;BME280;68414;53.946;27.634;2023-04-01T03:28:26;97134.859375;;;6.070000;74.935547
77517;BME280;68414;53.946;27.634;2023-04-01T03:29:26;97127.539062;;;6.150000;74.574219
77517;BME280;68414;53.946;27.634;2023-04-01T03:30:26;97140.531250;;;6.220000;73.953125
77517;BME280;68414;53.946;27.634;2023-04-01T03:31:26;97142.546875;;;6.250000;74.000977
77517;BME280;68414;53.946;27.634;2023-04-01T03:32:26;97137.906250;;;6.290000;74.082031
77517;BME280;68414;53.946;27.634;2023-04-01T03:33:26;97137.609375;;;6.340000;73.996094
77517;BME280;68414;53.946;27.634;2023-04-01T03:34:26;97149.382812;;;6.380000;73.820312
77517;BME280;68414;53.946;27.634;2023-04-01T03:35:26;97146.648438;;;6.380000;73.465820
77517;BME280;68414;53.946;27.634;2023-04-01T03:36:26;97134.875000;;;6.340000;73.470703
77517;BME280;68414;53.946;27.634;2023-04-01T03:37:26;97137.296875;;;6.390000;73.392578
77517;BME280;68414;53.946;27.634;2023-04-01T03:38:26;97141.976562;;;6.380000;73.414062
77517;BME280;68414;53.946;27.634;2023-04-01T03:39:26;97142.390625;;;6.400000;73.246094
77517;BME280;68414;53.946;27.634;2023-04-01T03:40:26;97138.859375;;;6.400000;73.233398
77517;BME280;68414;53.946;27.634;2023-04-01T03:41:26;97141.218750;;;6.410000;73.365234
77517;BME280;68414;53.946;27.634;2023-04-01T03:42:26;97143.078125;;;6.340000;73.277344
77517;BME280;68414;53.946;27.634;2023-04-01T03:43:26;97144.640625;;;6.350000;73.449219
77517;BME280;68414;53.946;27.634;2023-04-01T03:44:26;97143.531250;;;6.390000;73.349609
77517;BME280;68414;53.946;27.634;2023-04-01T03:45:26;97138.484375;;;6.410000;72.872070
77517;BME280;68414;53.946;27.634;2023-04-01T03:46:26;97135.398438;;;6.430000;72.736328
77517;BME280;68414;53.946;27.634;2023-04-01T03:47:26;97140.078125;;;6.420000;72.669922
77517;BME280;68414;53.946;27.634;2023-04-01T03:48:26;97145.546875;;;6.420000;72.702148
77517;BME280;68414;53.946;27.634;2023-04-01T03:49:26;97141.398438;;;6.260000;73.134766
77517;BME280;68414;53.946;27.634;2023-04-01T03:50:26;97147.125000;;;6.170000;73.410156
77517;BME280;68414;53.946;27.634;2023-04-01T03:51:26;97138.171875;;;6.200000;73.875000
77517;BME280;68414;53.946;27.634;2023-04-01T03:52:26;97144.859375;;;6.230000;73.633789
77517;BME280;68414;53.946;27.634;2023-04-01T03:53:26;97138.250000;;;6.240000;73.742188
77517;BME280;68414;53.946;27.634;2023-04-01T03:54:26;97139.804688;;;6.250000;73.754883
77517;BME280;68414;53.946;27.634;2023-04-01T03:55:26;97139.500000;;;6.300000;73.816406
77517;BME280;68414;53.946;27.634;2023-04-01T03:56:26;97143.875000;;;6.340000;73.470703
77517;BME280;68414;53.946;27.634;2023-04-01T03:57:26;97147.445312;;;6.380000;73.489258
77517;BME280;68414;53.946;27.634;2023-04-01T03:58:26;97154.125000;;;6.410000;73.365234
77517;BME280;68414;53.946;27.634;2023-04-01T03:59:26;97150.218750;;;6.420000;73.108398
77517;BME280;68414;53.946;27.634;2023-04-01T04:00:26;97153.750000;;;6.420000;72.831055
77517;BME280;68414;53.946;27.634;2023-04-01T04:01:26;97155.117188;;;6.290000;72.958984
77517;BME280;68414;53.946;27.634;2023-04-01T04:02:26;97155.375000;;;6.210000;73.704102
77517;BME280;68414;53.946;27.634;2023-04-01T04:03:26;97164.671875;;;6.160000;73.772461
77517;BME280;68414;53.946;27.634;2023-04-01T04:04:26;97158.367188;;;6.120000;73.935547
77517;BME280;68414;53.946;27.634;2023-04-01T04:05:26;97164.929688;;;6.070000;73.929688
77517;BME280;68414;53.946;27.634;2023-04-01T04:06:26;97164.460938;;;6.020000;73.896484
77517;BME280;68414;53.946;27.634;2023-04-01T04:07:26;97169.796875;;;5.950000;74.485352
77517;BME280;68414;53.946;27.634;2023-04-01T04:08:26;97164.757812;;;5.970000;74.734375
77517;BME280;68414;53.946;27.634;2023-04-01T04:09:26;97169.968750;;;6.050000;74.783203
77517;BME280;68414;53.946;27.634;2023-04-01T04:10:26;97172.078125;;;6.160000;74.638672
77517;BME280;68414;53.946;27.634;2023-04-01T04:11:26;97179.609375;;;6.220000;74.136719
77517;BME280;68414;53.946;27.634;2023-04-01T04:12:25;97171.484375;;;6.260000;74.056641
77517;BME280;68414;53.946;27.634;2023-04-01T04:13:26;97172.320312;;;6.300000;74.191406
77517;BME280;68414;53.946;27.634;2023-04-01T04:14:25;97171.265625;;;6.380000;73.626953
77517;BME280;68414;53.946;27.634;2023-04-01T04:15:26;97179.171875;;;6.430000;73.089844
77517;BME280;68414;53.946;27.634;2023-04-01T04:16:26;97169.585938;;;6.300000;73.055664
77517;BME280;68414;53.946;27.634;2023-04-01T04:17:26;97174.890625;;;6.190000;73.980469
77517;BME280;68414;53.946;27.634;2023-04-01T04:18:26;97167.406250;;;6.160000;74.329102
77517;BME280;68414;53.946;27.634;2023-04-01T04:19:26;97168.625000;;;6.190000;74.622070
77517;BME280;68414;53.946;27.634;2023-04-01T04:20:26;97173.843750;;;6.040000;74.940430
77517;BME280;68414;53.946;27.634;2023-04-01T04:21:26;97176.062500;;;5.950000;75.385742
77517;BME280;68414;53.946;27.634;2023-04-01T04:22:26;97181.328125;;;5.850000;75.378906
77517;BME280;68414;53.946;27.634;2023-04-01T04:23:26;97173.421875;;;5.800000;75.967773
77517;BME280;68414;53.946;27.634;2023-04-01T04:24:25;97161.101562;;;5.890000;75.750000
77517;BME280;68414;53.946;27.634;2023-04-01T04:25:25;97165.554688;;;5.970000;75.539062
77517;BME280;68414;53.946;27.634;2023-04-01T04:26:26;97157.945312;;;6.100000;75.110352
77517;BME280;68414;53.946;27.634;2023-04-01T04:27:25;97170.562500;;;6.180000;74.654297
77517;BME280;68414;53.946;27.634;2023-04-01T04:28:26;97161.398438;;;6.070000;74.281250
77517;BME280;68414;53.946;27.634;2023-04-01T04:29:27;97157.570312;;;6.110000;74.310547
77517;BME280;68414;53.946;27.634;2023-04-01T04:30:26;97147.843750;;;6.140000;73.918945
77517;BME280;68414;53.946;27.634;2023-04-01T04:31:26;97154.953125;;;6.190000;74.065430
77517;BME280;68414;53.946;27.634;2023-04-01T04:32:26;97153.859375;;;6.230000;74.179688
77517;BME280;68414;53.946;27.634;2023-04-01T04:33:26;97158.828125;;;6.180000;74.257812
77517;BME280;68414;53.946;27.634;2023-04-01T04:34:26;97161.265625;;;6.230000;73.698242
77517;BME280;68414;53.946;27.634;2023-04-01T04:35:26;97157.390625;;;6.240000;73.795898
77517;BME280;68414;53.946;27.634;2023-04-01T04:36:26;97157.054688;;;6.290000;73.525391
77517;BME280;68414;53.946;27.634;2023-04-01T04:37:26;97155.531250;;;6.310000;73.605469
77517;BME280;68414;53.946;27.634;2023-04-01T04:38:26;97154.859375;;;6.380000;73.445312
77517;BME280;68414;53.946;27.634;2023-04-01T04:39:26;97164.312500;;;6.440000;73.036133
77517;BME280;68414;53.946;27.634;2023-04-01T04:40:25;97152.656250;;;6.470000;72.989258
77517;BME280;68414;53.946;27.634;2023-04-01T04:41:25;97155.382812;;;6.470000;72.795898
77517;BME280;68414;53.946;27.634;2023-04-01T04:42:25;97165.570312;;;6.500000;72.779297
77517;BME280;68414;53.946;27.634;2023-04-01T04:43:26;97162.484375;;;6.510000;72.620117
77517;BME280;68414;53.946;27.634;2023-04-01T04:44:25;97157.812500;;;6.520000;72.493164
77517;BME280;68414;53.946;27.634;2023-04-01T04:45:25;97164.429688;;;6.510000;72.491211
77517;BME280;68414;53.946;27.634;2023-04-01T04:46:26;97159.640625;;;6.440000;73.294922
77517;BME280;68414;53.946;27.634;2023-04-01T04:47:25;97166.750000;;;6.490000;73.099609
77517;BME280;68414;53.946;27.634;2023-04-01T04:48:26;97170.312500;;;6.530000;72.891602
77517;BME280;68414;53.946;27.634;2023-04-01T04:49:26;97166.437500;;;6.540000;72.539062
77517;BME280;68414;53.946;27.634;2023-04-01T04:50:26;97175.062500;;;6.560000;72.713867
77517;BME280;68414;53.946;27.634;2023-04-01T04:51:26;97167.468750;;;6.460000;73.094727
77517;BME280;68414;53.946;27.634;2023-04-01T04:52:26;97170.468750;;;6.370000;73.089844
77517;BME280;68414;53.946;27.634;2023-04-01T04:53:27;97175.898438;;;6.340000;73.492188
77517;BME280;68414;53.946;27.634;2023-04-01T04:54:26;97177.453125;;;6.350000;73.438477
77517;BME280;68414;53.946;27.634;2023-04-01T04:55:25;97179.468750;;;6.380000;73.359375
77517;BME280;68414;53.946;27.634;2023-04-01T04:56:26;97177.531250;;;6.380000;73.360352
77517;BME280;68414;53.946;27.634;2023-04-01T04:57:27;97177.109375;;;6.360000;73.646484
77517;BME280;68414;53.946;27.634;2023-04-01T04:58:27;97175.101562;;;6.330000;73.479492
77517;BME280;68414;53.946;27.634;2023-04-01T04:59:27;97172.359375;;;6.330000;73.576172
77517;BME280;68414;53.946;27.634;2023-04-01T05:00:27;97178.328125;;;6.390000;73.810547
77517;BME280;68414;53.946;27.634;2023-04-01T05:01:26;97174.843750;;;6.420000;73.461914
77517;BME280;68414;53.946;27.634;2023-04-01T05:02:27;97170.890625;;;6.390000;73.478516
77517;BME280;68414;53.946;27.634;2023-04-01T05:03:25;97168.640625;;;6.450000;73.478516
77517;BME280;68414;53.946;27.634;2023-04-01T05:04:26;97170.695312;;;6.510000;73.488281
77517;BME280;68414;53.946;27.634;2023-04-01T05:05:26;97175.796875;;;6.530000;73.266602